sensor_id;sensor_type;location;lat;lon;timestamp;pressure;altitude;pressure_sealevel;temperature;humidity
85870;BME280;76385;52.392;16.922;2024-03-23T01:00:09;100198.0;;;9.72;95.68
85870;BME280;76385;52.392;16.922;2024-03-23T01:15:09;100180.0;;;9.69;95.8
85870;BME280;76385;52.392;16.922;2024-03-23T01:30:09;100162.0;;;9.72;95.78
85870;BME280;76385;52.392;16.922;2024-03-23T01:45:09;100149.0;;;9.7;96.11
85870;BME280;76385;52.392;16.922;2024-03-23T02:00:10;100121.0;;;9.7;96.04
85870;BME280;76385;52.392;16.922;2024-03-23T02:15:09;100105.0;;;9.73;96.0
85870;BME280;76385;52.392;16.922;2024-03-23T02:30:10;100086.0;;;9.73;96.7
85870;BME280;76385;52.392;16.922;2024-03-23T02:45:10;100065.0;;;9.73;96.79
85870;BME280;76385;52.392;16.922;2024-03-23T03:00:10;100057.0;;;9.77;96.63
85870;BME280;76385;52.392;16.922;2024-03-23T03:15:10;100035.0;;;9.81;96.38
85870;BME280;76385;52.392;16.922;2024-03-23T03:30:09;100016.0;;;9.73;96.57
85870;BME280;76385;52.392;16.922;2024-03-23T03:45:10;100006.0;;;9.74;96.59
85870;BME280;76385;52.392;16.922;2024-03-23T04:00:10;100010.0;;;9.74;96.47
85870;BME280;76385;52.392;16.922;2024-03-23T04:15:09;99998.0;;;9.76;96.35
85870;BME280;76385;52.392;16.922;2024-03-23T04:30:09;100005.0;;;9.74;96.57
85870;BME280;76385;52.392;16.922;2024-03-23T04:45:09;100015.0;;;7.99;94.12
85870;BME280;76385;52.392;16.922;2024-03-23T05:00:09;99961.0;;;7.43;95.1
85870;BME280;76385;52.392;16.922;2024-03-23T05:15:09;99951.0;;;7.34;94.65
85870;BME280;76385;52.392;16.922;2024-03-23T05:30:09;99937.0;;;7.22;94.59
85870;BME280;76385;52.392;16.922;2024-03-23T05:45:09;99942.0;;;7.31;94.38
85870;BME280;76385;52.392;16.922;2024-03-23T06:00:09;99944.0;;;7.38;94.15
85870;BME280;76385;52.392;16.922;2024-03-23T06:15:09;99924.0;;;7.48;93.79
85870;BME280;76385;52.392;16.922;2024-03-23T06:30:09;99924.0;;;7.4;93.97
85870;BME280;76385;52.392;16.922;2024-03-23T06:45:09;99910.0;;;7.36;94.03
85870;BME280;76385;52.392;16.922;2024-03-23T07:00:09;99868.0;;;7.28;94.35
85870;BME280;76385;52.392;16.922;2024-03-23T07:15:09;99881.0;;;7.17;93.56
85870;BME280;76385;52.392;16.922;2024-03-23T07:30:09;99820.0;;;7.27;93.82
85870;BME280;76385;52.392;16.922;2024-03-23T07:45:09;99848.0;;;7.24;93.61
85870;BME280;76385;52.392;16.922;2024-03-23T08:00:09;99816.0;;;7.24;94.22
85870;BME280;76385;52.392;16.922;2024-03-23T08:15:09;99739.0;;;7.43;94.29
85870;BME280;76385;52.392;16.922;2024-03-23T08:30:09;99760.0;;;7.5;93.33
85870;BME280;76385;52.392;16.922;2024-03-23T08:45:09;99752.0;;;7.72;93.02
85870;BME280;76385;52.392;16.922;2024-03-23T09:00:09;99689.0;;;7.92;93.11
85870;BME280;76385;52.392;16.922;2024-03-23T09:15:09;99688.0;;;7.88;92.91
85870;BME280;76385;52.392;16.922;2024-03-23T09:30:10;99674.0;;;7.84;93.22
85870;BME280;76385;52.392;16.922;2024-03-23T09:45:10;99661.0;;;7.78;93.48
85870;BME280;76385;52.392;16.922;2024-03-23T10:00:10;99642.0;;;7.71;93.09
85870;BME280;76385;52.392;16.922;2024-03-23T10:15:10;99639.0;;;7.6;93.35
85870;BME280;76385;52.392;16.922;2024-03-23T10:30:10;99620.0;;;7.54;93.83
85870;BME280;76385;52.392;16.922;2024-03-23T10:45:09;99598.0;;;7.39;94.51
85870;BME280;76385;52.392;16.922;2024-03-23T11:00:09;99575.0;;;7.3;95.32
85870;BME280;76385;52.392;16.922;2024-03-23T11:15:09;99539.0;;;7.16;94.58
85870;BME280;76385;52.392;16.922;2024-03-23T11:30:09;99494.0;;;7.21;95.21
85870;BME280;76385;52.392;16.922;2024-03-23T11:45:09;99472.0;;;7.17;95.0
85870;BME280;76385;52.392;16.922;2024-03-23T12:00:09;99438.0;;;7.22;94.0
85870;BME280;76385;52.392;16.922;2024-03-23T12:15:09;99427.0;;;7.23;94.03
85870;BME280;76385;52.392;16.922;2024-03-23T12:30:09;99406.0;;;7.23;93.82
85870;BME280;76385;52.392;16.922;2024-03-23T12:45:09;99371.0;;;7.23;94.64
85870;BME280;76385;52.392;16.922;2024-03-23T13:00:09;99395.0;;;6.85;93.25
85870;BME280;76385;52.392;16.922;2024-03-23T13:15:09;99540.0;;;6.56;95.0
85870;BME280;76385;52.392;16.922;2024-03-23T13:30:09;99572.0;;;5.92;93.8
85870;BME280;76385;52.392;16.922;2024-03-23T13:45:09;99630.0;;;5.62;92.62
85870;BME280;76385;52.392;16.922;2024-03-23T14:00:09;99655.0;;;4.9;92.66
85870;BME280;76385;52.392;16.922;2024-03-23T14:15:09;99671.0;;;4.77;91.66
85870;BME280;76385;52.392;16.922;2024-03-23T14:30:09;99702.0;;;4.43;92.26
85870;BME280;76385;52.392;16.922;2024-03-23T14:45:09;99783.0;;;4.49;92.15
85870;BME280;76385;52.392;16.922;2024-03-23T15:00:09;99829.0;;;4.42;93.35
85870;BME280;76385;52.392;16.922;2024-03-23T15:15:09;99864.0;;;4.5;93.33
85870;BME280;76385;52.392;16.922;2024-03-23T15:30:09;99887.0;;;4.51;92.66
85870;BME280;76385;52.392;16.922;2024-03-23T15:45:09;99897.0;;;4.5;92.33
85870;BME280;76385;52.392;16.922;2024-03-23T16:00:09;99920.0;;;4.51;92.76
85870;BME280;76385;52.392;16.922;2024-03-23T16:15:09;99922.0;;;4.52;92.56
85870;BME280;76385;52.392;16.922;2024-03-23T16:30:09;99932.0;;;4.41;92.33
85870;BME280;76385;52.392;16.922;2024-03-23T16:45:10;99972.0;;;4.36;92.49
85870;BME280;76385;52.392;16.922;2024-03-23T17:00:09;99976.0;;;4.19;91.54
85870;BME280;76385;52.392;16.922;2024-03-23T17:15:10;99991.0;;;4.24;91.77
85870;BME280;76385;52.392;16.922;2024-03-23T17:30:10;100013.0;;;4.19;91.67
85870;BME280;76385;52.392;16.922;2024-03-23T17:45:10;100058.0;;;4.2;91.67
85870;BME280;76385;52.392;16.922;2024-03-23T18:00:09;100055.0;;;4.56;91.21
85870;BME280;76385;52.392;16.922;2024-03-23T18:15:09;100038.0;;;4.68;90.15
85870;BME280;76385;52.392;16.922;2024-03-23T18:30:09;100133.0;;;4.58;90.43
85870;BME280;76385;52.392;16.922;2024-03-23T18:45:09;100101.0;;;4.49;90.55
85870;BME280;76385;52.392;16.922;2024-03-23T19:00:09;100093.0;;;4.43;90.92
85870;BME280;76385;52.392;16.922;2024-03-23T19:15:09;100120.0;;;4.27;91.3
85870;BME280;76385;52.392;16.922;2024-03-23T19:30:09;100101.0;;;4.03;91.57
85870;BME280;76385;52.392;16.922;2024-03-23T19:45:09;100092.0;;;3.81;91.87
85870;BME280;76385;52.392;16.922;2024-03-23T20:00:09;100075.0;;;3.66;92.48
85870;BME280;76385;52.392;16.922;2024-03-23T20:15:09;100066.0;;;3.61;92.67
85870;BME280;76385;52.392;16.922;2024-03-23T20:30:09;100058.0;;;3.51;92.87
85870;BME280;76385;52.392;16.922;2024-03-23T20:45:09;100028.0;;;3.39;92.83
85870;BME280;76385;52.392;16.922;2024-03-23T21:00:09;100033.0;;;3.26;93.09
85870;BME280;76385;52.392;16.922;2024-03-23T21:15:09;100020.0;;;3.2;93.36
85870;BME280;76385;52.392;16.922;2024-03-23T21:30:09;100023.0;;;3.0;93.89
85870;BME280;76385;52.392;16.922;2024-03-23T21:55:09;100007.0;;;3.13;94.15
85870;BME280;76385;52.392;16.922;2024-03-23T22:10:09;99984.0;;;3.28;93.79
85870;BME280;76385;52.392;16.922;2024-03-23T22:25:09;99974.0;;;3.17;93.5
85870;BME280;76385;52.392;16.922;2024-03-23T22:40:09;99962.0;;;3.08;93.7
85870;BME280;76385;52.392;16.922;2024-03-23T22:55:09;99948.0;;;3.27;94.05
85870;BME280;76385;52.392;16.922;2024-03-23T23:10:09;99947.0;;;3.3;93.79
85870;BME280;76385;52.392;16.922;2024-03-23T23:25:09;99947.0;;;3.28;93.65
85870;BME280;76385;52.392;16.922;2024-03-23T23:40:09;99946.0;;;3.29;93.38
85870;BME280;76385;52.392;16.922;2024-03-23T23:55:09;99945.0;;;3.29;93.53
